Terminal Aerodrome Forecast
Issued by NWS

Home | Current Version | Previous Version | Text Only | Print | Product List | Glossary On
Versions: 1 2 3 4 5 6 7 8 9 10 11 12
404
FTUS44 KBMX 301120
TAFMGM
TAF
KMGM 301120Z 3012/3112 27005KT P6SM SCT040
     FM301900 24006KT P6SM VCTS BKN050CB
     FM310100 00000KT P6SM FEW040=

USA.gov is the U.S. government's official web portal to all federal, state and local government web resources and services.